sensor_id;sensor_type;location;lat;lon;timestamp;P1;durP1;ratioP1;P2;durP2;ratioP2
2684;SDS011;1352;48.446;9.156;2022-10-18T00:00:13;6.37;;;3.93;;
2684;SDS011;1352;48.446;9.156;2022-10-18T00:02:40;8.23;;;3.50;;
2684;SDS011;1352;48.446;9.156;2022-10-18T00:05:07;5.23;;;3.90;;
2684;SDS011;1352;48.446;9.156;2022-10-18T00:07:34;5.40;;;3.30;;
2684;SDS011;1352;48.446;9.156;2022-10-18T00:10:03;4.40;;;4.00;;
2684;SDS011;1352;48.446;9.156;2022-10-18T00:12:32;3.47;;;3.00;;
2684;SDS011;1352;48.446;9.156;2022-10-18T00:14:59;3.70;;;3.40;;
2684;SDS011;1352;48.446;9.156;2022-10-18T00:17:27;5.07;;;3.60;;
2684;SDS011;1352;48.446;9.156;2022-10-18T00:19:54;3.80;;;2.93;;
2684;SDS011;1352;48.446;9.156;2022-10-18T00:22:21;5.13;;;3.80;;
2684;SDS011;1352;48.446;9.156;2022-10-18T00:24:49;4.93;;;4.00;;
2684;SDS011;1352;48.446;9.156;2022-10-18T00:27:18;3.73;;;3.07;;
2684;SDS011;1352;48.446;9.156;2022-10-18T00:29:45;7.50;;;4.30;;
2684;SDS011;1352;48.446;9.156;2022-10-18T00:32:12;5.03;;;3.50;;
2684;SDS011;1352;48.446;9.156;2022-10-18T00:34:39;4.20;;;3.60;;
2684;SDS011;1352;48.446;9.156;2022-10-18T00:37:06;3.47;;;3.17;;
2684;SDS011;1352;48.446;9.156;2022-10-18T00:39:33;5.50;;;4.40;;
2684;SDS011;1352;48.446;9.156;2022-10-18T00:42:00;19.10;;;4.70;;
2684;SDS011;1352;48.446;9.156;2022-10-18T00:47:40;5.10;;;3.33;;
2684;SDS011;1352;48.446;9.156;2022-10-18T00:50:09;6.20;;;3.50;;
2684;SDS011;1352;48.446;9.156;2022-10-18T00:52:37;9.37;;;3.33;;
2684;SDS011;1352;48.446;9.156;2022-10-18T00:55:07;7.20;;;3.73;;
2684;SDS011;1352;48.446;9.156;2022-10-18T00:57:35;4.23;;;3.83;;
2684;SDS011;1352;48.446;9.156;2022-10-18T01:00:04;7.40;;;3.33;;
2684;SDS011;1352;48.446;9.156;2022-10-18T01:02:35;6.40;;;3.30;;
2684;SDS011;1352;48.446;9.156;2022-10-18T01:05:03;5.00;;;3.80;;
2684;SDS011;1352;48.446;9.156;2022-10-18T01:10:40;3.37;;;3.03;;
2684;SDS011;1352;48.446;9.156;2022-10-18T01:13:19;11.23;;;4.50;;
2684;SDS011;1352;48.446;9.156;2022-10-18T01:15:56;3.60;;;3.00;;
2684;SDS011;1352;48.446;9.156;2022-10-18T01:18:29;6.80;;;3.83;;
2684;SDS011;1352;48.446;9.156;2022-10-18T01:21:20;14.30;;;4.00;;
2684;SDS011;1352;48.446;9.156;2022-10-18T01:27:15;6.23;;;3.80;;
2684;SDS011;1352;48.446;9.156;2022-10-18T01:29:57;8.20;;;3.70;;
2684;SDS011;1352;48.446;9.156;2022-10-18T01:32:57;4.23;;;3.03;;
2684;SDS011;1352;48.446;9.156;2022-10-18T01:35:30;4.17;;;3.37;;
2684;SDS011;1352;48.446;9.156;2022-10-18T01:38:04;6.47;;;3.43;;
2684;SDS011;1352;48.446;9.156;2022-10-18T01:40:36;3.67;;;2.73;;
2684;SDS011;1352;48.446;9.156;2022-10-18T01:43:05;7.00;;;3.33;;
2684;SDS011;1352;48.446;9.156;2022-10-18T01:45:35;5.90;;;3.27;;
2684;SDS011;1352;48.446;9.156;2022-10-18T01:48:04;3.87;;;3.47;;
2684;SDS011;1352;48.446;9.156;2022-10-18T01:50:32;10.63;;;3.60;;
2684;SDS011;1352;48.446;9.156;2022-10-18T01:53:00;4.47;;;3.07;;
2684;SDS011;1352;48.446;9.156;2022-10-18T01:55:29;3.87;;;3.47;;
2684;SDS011;1352;48.446;9.156;2022-10-18T01:58:04;4.10;;;3.70;;
2684;SDS011;1352;48.446;9.156;2022-10-18T02:00:36;5.30;;;3.90;;
2684;SDS011;1352;48.446;9.156;2022-10-18T02:03:10;3.40;;;3.10;;
2684;SDS011;1352;48.446;9.156;2022-10-18T02:05:43;5.20;;;3.80;;
2684;SDS011;1352;48.446;9.156;2022-10-18T02:08:20;4.27;;;3.50;;
2684;SDS011;1352;48.446;9.156;2022-10-18T02:10:54;3.80;;;3.27;;
2684;SDS011;1352;48.446;9.156;2022-10-18T02:13:25;5.43;;;3.30;;
2684;SDS011;1352;48.446;9.156;2022-10-18T02:15:56;3.57;;;3.17;;
2684;SDS011;1352;48.446;9.156;2022-10-18T02:18:30;5.50;;;3.40;;
2684;SDS011;1352;48.446;9.156;2022-10-18T02:21:01;7.40;;;3.20;;
2684;SDS011;1352;48.446;9.156;2022-10-18T02:23:31;4.50;;;3.13;;
2684;SDS011;1352;48.446;9.156;2022-10-18T02:25:59;3.10;;;2.90;;
2684;SDS011;1352;48.446;9.156;2022-10-18T02:28:26;4.93;;;2.70;;
2684;SDS011;1352;48.446;9.156;2022-10-18T02:30:57;6.50;;;3.20;;
2684;SDS011;1352;48.446;9.156;2022-10-18T02:33:31;3.40;;;2.90;;
2684;SDS011;1352;48.446;9.156;2022-10-18T02:36:05;5.43;;;2.67;;
2684;SDS011;1352;48.446;9.156;2022-10-18T02:38:36;3.37;;;2.97;;
2684;SDS011;1352;48.446;9.156;2022-10-18T02:41:06;6.10;;;3.37;;
2684;SDS011;1352;48.446;9.156;2022-10-18T02:43:33;6.27;;;3.67;;
2684;SDS011;1352;48.446;9.156;2022-10-18T02:46:00;4.40;;;3.90;;
2684;SDS011;1352;48.446;9.156;2022-10-18T02:48:28;4.10;;;3.53;;
2684;SDS011;1352;48.446;9.156;2022-10-18T02:50:57;4.73;;;3.40;;
2684;SDS011;1352;48.446;9.156;2022-10-18T02:53:24;4.53;;;3.80;;
2684;SDS011;1352;48.446;9.156;2022-10-18T02:55:51;4.37;;;3.70;;
2684;SDS011;1352;48.446;9.156;2022-10-18T02:58:18;4.90;;;4.33;;
2684;SDS011;1352;48.446;9.156;2022-10-18T03:00:45;5.60;;;3.60;;
2684;SDS011;1352;48.446;9.156;2022-10-18T03:03:15;7.90;;;3.93;;
2684;SDS011;1352;48.446;9.156;2022-10-18T03:05:42;4.50;;;3.80;;
2684;SDS011;1352;48.446;9.156;2022-10-18T03:08:10;4.07;;;3.67;;
2684;SDS011;1352;48.446;9.156;2022-10-18T03:10:37;3.90;;;3.60;;
2684;SDS011;1352;48.446;9.156;2022-10-18T03:13:04;9.00;;;3.53;;
2684;SDS011;1352;48.446;9.156;2022-10-18T03:15:31;6.40;;;3.60;;
2684;SDS011;1352;48.446;9.156;2022-10-18T03:17:58;5.97;;;3.80;;
2684;SDS011;1352;48.446;9.156;2022-10-18T03:20:25;4.47;;;4.07;;
2684;SDS011;1352;48.446;9.156;2022-10-18T03:22:52;7.03;;;3.83;;
2684;SDS011;1352;48.446;9.156;2022-10-18T03:25:21;9.63;;;5.00;;
2684;SDS011;1352;48.446;9.156;2022-10-18T03:27:48;6.23;;;3.73;;
2684;SDS011;1352;48.446;9.156;2022-10-18T03:30:15;5.93;;;3.77;;
2684;SDS011;1352;48.446;9.156;2022-10-18T03:32:42;8.33;;;4.10;;
2684;SDS011;1352;48.446;9.156;2022-10-18T03:35:09;4.10;;;3.70;;
2684;SDS011;1352;48.446;9.156;2022-10-18T03:37:36;10.07;;;3.60;;
2684;SDS011;1352;48.446;9.156;2022-10-18T03:40:04;7.40;;;3.90;;
2684;SDS011;1352;48.446;9.156;2022-10-18T03:42:33;5.57;;;4.03;;
2684;SDS011;1352;48.446;9.156;2022-10-18T03:45:00;7.80;;;3.93;;
2684;SDS011;1352;48.446;9.156;2022-10-18T03:47:27;5.23;;;4.00;;
2684;SDS011;1352;48.446;9.156;2022-10-18T03:49:54;4.40;;;3.90;;
2684;SDS011;1352;48.446;9.156;2022-10-18T03:52:21;5.10;;;3.80;;
2684;SDS011;1352;48.446;9.156;2022-10-18T03:54:48;5.27;;;4.30;;
2684;SDS011;1352;48.446;9.156;2022-10-18T03:57:15;5.90;;;4.10;;
2684;SDS011;1352;48.446;9.156;2022-10-18T03:59:43;3.80;;;3.17;;
2684;SDS011;1352;48.446;9.156;2022-10-18T04:02:12;3.67;;;3.37;;
2684;SDS011;1352;48.446;9.156;2022-10-18T04:04:39;3.80;;;3.00;;
2684;SDS011;1352;48.446;9.156;2022-10-18T04:07:06;15.00;;;3.90;;
2684;SDS011;1352;48.446;9.156;2022-10-18T04:09:33;5.17;;;3.50;;
2684;SDS011;1352;48.446;9.156;2022-10-18T04:12:00;10.80;;;4.03;;
2684;SDS011;1352;48.446;9.156;2022-10-18T04:14:28;4.30;;;3.50;;
2684;SDS011;1352;48.446;9.156;2022-10-18T04:16:56;3.83;;;3.03;;
2684;SDS011;1352;48.446;9.156;2022-10-18T04:19:23;3.53;;;3.23;;
2684;SDS011;1352;48.446;9.156;2022-10-18T04:21:52;3.93;;;3.37;;
2684;SDS011;1352;48.446;9.156;2022-10-18T04:24:19;5.03;;;3.10;;
2684;SDS011;1352;48.446;9.156;2022-10-18T04:26:46;5.30;;;3.60;;
2684;SDS011;1352;48.446;9.156;2022-10-18T04:29:13;4.70;;;3.60;;
2684;SDS011;1352;48.446;9.156;2022-10-18T04:31:40;5.83;;;3.60;;
2684;SDS011;1352;48.446;9.156;2022-10-18T04:34:08;4.77;;;3.70;;
2684;SDS011;1352;48.446;9.156;2022-10-18T04:36:36;6.10;;;4.37;;
2684;SDS011;1352;48.446;9.156;2022-10-18T04:39:03;6.10;;;4.20;;
2684;SDS011;1352;48.446;9.156;2022-10-18T04:41:30;3.73;;;2.90;;
2684;SDS011;1352;48.446;9.156;2022-10-18T04:43:57;6.50;;;3.67;;
2684;SDS011;1352;48.446;9.156;2022-10-18T04:46:24;7.43;;;3.60;;
2684;SDS011;1352;48.446;9.156;2022-10-18T04:48:51;4.57;;;3.37;;
2684;SDS011;1352;48.446;9.156;2022-10-18T04:51:19;3.50;;;3.20;;
2684;SDS011;1352;48.446;9.156;2022-10-18T04:53:46;9.50;;;3.40;;
2684;SDS011;1352;48.446;9.156;2022-10-18T04:56:13;4.23;;;3.50;;
2684;SDS011;1352;48.446;9.156;2022-10-18T04:58:42;7.50;;;3.73;;
2684;SDS011;1352;48.446;9.156;2022-10-18T05:01:09;6.10;;;3.80;;
2684;SDS011;1352;48.446;9.156;2022-10-18T05:03:36;4.43;;;3.50;;
2684;SDS011;1352;48.446;9.156;2022-10-18T05:06:03;7.30;;;4.13;;
2684;SDS011;1352;48.446;9.156;2022-10-18T05:08:32;4.30;;;3.50;;
2684;SDS011;1352;48.446;9.156;2022-10-18T05:11:00;4.50;;;4.10;;
2684;SDS011;1352;48.446;9.156;2022-10-18T05:13:29;7.63;;;4.37;;
2684;SDS011;1352;48.446;9.156;2022-10-18T05:15:56;4.77;;;3.83;;
2684;SDS011;1352;48.446;9.156;2022-10-18T05:18:24;8.70;;;5.07;;
2684;SDS011;1352;48.446;9.156;2022-10-18T05:20:51;12.73;;;4.90;;
2684;SDS011;1352;48.446;9.156;2022-10-18T05:23:18;5.83;;;3.70;;
2684;SDS011;1352;48.446;9.156;2022-10-18T05:25:46;7.10;;;4.80;;
2684;SDS011;1352;48.446;9.156;2022-10-18T05:28:14;4.87;;;3.87;;
2684;SDS011;1352;48.446;9.156;2022-10-18T05:30:41;6.30;;;3.73;;
2684;SDS011;1352;48.446;9.156;2022-10-18T05:33:08;6.03;;;4.80;;
2684;SDS011;1352;48.446;9.156;2022-10-18T05:35:35;4.87;;;4.30;;
2684;SDS011;1352;48.446;9.156;2022-10-18T05:38:02;5.93;;;3.80;;
2684;SDS011;1352;48.446;9.156;2022-10-18T05:40:30;4.20;;;3.80;;
2684;SDS011;1352;48.446;9.156;2022-10-18T05:42:59;5.40;;;4.30;;
2684;SDS011;1352;48.446;9.156;2022-10-18T05:45:26;6.03;;;3.97;;
2684;SDS011;1352;48.446;9.156;2022-10-18T05:47:53;9.10;;;4.10;;
2684;SDS011;1352;48.446;9.156;2022-10-18T05:50:20;3.90;;;3.50;;
2684;SDS011;1352;48.446;9.156;2022-10-18T05:52:47;4.50;;;4.10;;
2684;SDS011;1352;48.446;9.156;2022-10-18T05:55:14;5.53;;;4.37;;
2684;SDS011;1352;48.446;9.156;2022-10-18T05:57:41;4.93;;;4.10;;
2684;SDS011;1352;48.446;9.156;2022-10-18T06:00:10;6.47;;;4.50;;
2684;SDS011;1352;48.446;9.156;2022-10-18T06:02:38;4.40;;;3.90;;
2684;SDS011;1352;48.446;9.156;2022-10-18T06:05:05;6.73;;;4.47;;
2684;SDS011;1352;48.446;9.156;2022-10-18T06:07:32;7.67;;;4.20;;
2684;SDS011;1352;48.446;9.156;2022-10-18T06:09:59;4.30;;;3.77;;
2684;SDS011;1352;48.446;9.156;2022-10-18T06:12:26;8.17;;;3.60;;
2684;SDS011;1352;48.446;9.156;2022-10-18T06:14:53;4.40;;;3.53;;
2684;SDS011;1352;48.446;9.156;2022-10-18T06:17:22;4.40;;;3.87;;
2684;SDS011;1352;48.446;9.156;2022-10-18T06:19:49;7.07;;;3.40;;
2684;SDS011;1352;48.446;9.156;2022-10-18T06:22:16;6.30;;;4.50;;
2684;SDS011;1352;48.446;9.156;2022-10-18T06:24:43;5.23;;;4.73;;
2684;SDS011;1352;48.446;9.156;2022-10-18T06:27:10;4.60;;;4.20;;
2684;SDS011;1352;48.446;9.156;2022-10-18T06:29:37;7.30;;;5.20;;
2684;SDS011;1352;48.446;9.156;2022-10-18T06:32:06;4.80;;;4.20;;
2684;SDS011;1352;48.446;9.156;2022-10-18T06:34:35;4.40;;;4.00;;
2684;SDS011;1352;48.446;9.156;2022-10-18T06:37:02;6.63;;;4.70;;
2684;SDS011;1352;48.446;9.156;2022-10-18T06:39:29;6.50;;;3.70;;
2684;SDS011;1352;48.446;9.156;2022-10-18T06:41:56;4.83;;;4.43;;
2684;SDS011;1352;48.446;9.156;2022-10-18T06:44:23;9.33;;;4.90;;
2684;SDS011;1352;48.446;9.156;2022-10-18T06:46:50;4.80;;;4.30;;
2684;SDS011;1352;48.446;9.156;2022-10-18T06:49:17;6.63;;;4.53;;
2684;SDS011;1352;48.446;9.156;2022-10-18T06:51:46;9.27;;;5.20;;
2684;SDS011;1352;48.446;9.156;2022-10-18T06:54:13;8.17;;;5.03;;
2684;SDS011;1352;48.446;9.156;2022-10-18T06:56:41;4.23;;;3.83;;
2684;SDS011;1352;48.446;9.156;2022-10-18T06:59:08;7.27;;;5.30;;
2684;SDS011;1352;48.446;9.156;2022-10-18T07:01:35;5.70;;;4.70;;
2684;SDS011;1352;48.446;9.156;2022-10-18T07:04:02;5.23;;;4.50;;
2684;SDS011;1352;48.446;9.156;2022-10-18T07:06:29;7.00;;;4.77;;
2684;SDS011;1352;48.446;9.156;2022-10-18T07:08:58;9.20;;;5.13;;
2684;SDS011;1352;48.446;9.156;2022-10-18T07:11:27;12.10;;;5.97;;
2684;SDS011;1352;48.446;9.156;2022-10-18T07:13:57;5.97;;;5.37;;
2684;SDS011;1352;48.446;9.156;2022-10-18T07:16:30;5.40;;;4.90;;
2684;SDS011;1352;48.446;9.156;2022-10-18T07:18:57;5.93;;;5.33;;
2684;SDS011;1352;48.446;9.156;2022-10-18T07:21:25;6.73;;;5.20;;
2684;SDS011;1352;48.446;9.156;2022-10-18T07:23:52;9.53;;;5.33;;
2684;SDS011;1352;48.446;9.156;2022-10-18T07:26:22;7.37;;;5.33;;
2684;SDS011;1352;48.446;9.156;2022-10-18T07:28:52;7.00;;;5.27;;
2684;SDS011;1352;48.446;9.156;2022-10-18T07:31:22;7.00;;;4.73;;
2684;SDS011;1352;48.446;9.156;2022-10-18T07:33:49;6.33;;;5.43;;
2684;SDS011;1352;48.446;9.156;2022-10-18T07:36:16;6.63;;;5.30;;
2684;SDS011;1352;48.446;9.156;2022-10-18T07:38:45;4.70;;;4.30;;
2684;SDS011;1352;48.446;9.156;2022-10-18T07:41:12;4.37;;;4.00;;
2684;SDS011;1352;48.446;9.156;2022-10-18T07:43:41;6.10;;;5.50;;
2684;SDS011;1352;48.446;9.156;2022-10-18T07:46:10;6.20;;;4.60;;
2684;SDS011;1352;48.446;9.156;2022-10-18T07:48:38;7.03;;;4.83;;
2684;SDS011;1352;48.446;9.156;2022-10-18T07:51:06;5.23;;;4.73;;
2684;SDS011;1352;48.446;9.156;2022-10-18T07:53:34;7.93;;;5.40;;
2684;SDS011;1352;48.446;9.156;2022-10-18T07:56:02;7.57;;;4.63;;
2684;SDS011;1352;48.446;9.156;2022-10-18T07:58:31;5.50;;;4.50;;
2684;SDS011;1352;48.446;9.156;2022-10-18T08:01:02;6.07;;;5.17;;
2684;SDS011;1352;48.446;9.156;2022-10-18T08:03:29;6.33;;;5.13;;
2684;SDS011;1352;48.446;9.156;2022-10-18T08:05:57;5.37;;;4.77;;
2684;SDS011;1352;48.446;9.156;2022-10-18T08:08:24;9.33;;;4.77;;
2684;SDS011;1352;48.446;9.156;2022-10-18T08:10:52;5.23;;;4.70;;
2684;SDS011;1352;48.446;9.156;2022-10-18T08:13:19;4.73;;;4.23;;
2684;SDS011;1352;48.446;9.156;2022-10-18T08:15:46;3.97;;;3.67;;
2684;SDS011;1352;48.446;9.156;2022-10-18T08:18:15;6.30;;;5.17;;
2684;SDS011;1352;48.446;9.156;2022-10-18T08:20:42;6.33;;;5.73;;
2684;SDS011;1352;48.446;9.156;2022-10-18T08:23:10;6.30;;;4.80;;
2684;SDS011;1352;48.446;9.156;2022-10-18T08:25:37;6.53;;;5.00;;
2684;SDS011;1352;48.446;9.156;2022-10-18T08:28:05;6.03;;;5.43;;
2684;SDS011;1352;48.446;9.156;2022-10-18T08:30:33;5.60;;;4.50;;
2684;SDS011;1352;48.446;9.156;2022-10-18T08:33:00;5.20;;;4.60;;
2684;SDS011;1352;48.446;9.156;2022-10-18T08:35:29;8.13;;;4.53;;
2684;SDS011;1352;48.446;9.156;2022-10-18T08:37:57;5.73;;;5.00;;
2684;SDS011;1352;48.446;9.156;2022-10-18T08:40:24;5.80;;;4.13;;
2684;SDS011;1352;48.446;9.156;2022-10-18T08:42:58;6.90;;;5.00;;
2684;SDS011;1352;48.446;9.156;2022-10-18T08:45:29;5.00;;;4.00;;
2684;SDS011;1352;48.446;9.156;2022-10-18T08:47:56;5.67;;;4.20;;
2684;SDS011;1352;48.446;9.156;2022-10-18T08:50:25;6.80;;;4.57;;
2684;SDS011;1352;48.446;9.156;2022-10-18T08:52:58;7.43;;;4.57;;
2684;SDS011;1352;48.446;9.156;2022-10-18T08:55:33;9.20;;;4.50;;
2684;SDS011;1352;48.446;9.156;2022-10-18T08:58:11;6.17;;;4.13;;
2684;SDS011;1352;48.446;9.156;2022-10-18T09:00:42;6.00;;;4.20;;
2684;SDS011;1352;48.446;9.156;2022-10-18T09:03:18;10.13;;;4.63;;
2684;SDS011;1352;48.446;9.156;2022-10-18T09:06:00;8.50;;;4.67;;
2684;SDS011;1352;48.446;9.156;2022-10-18T09:08:36;7.30;;;4.90;;
2684;SDS011;1352;48.446;9.156;2022-10-18T09:11:24;4.80;;;4.37;;
2684;SDS011;1352;48.446;9.156;2022-10-18T09:14:08;6.10;;;4.50;;
2684;SDS011;1352;48.446;9.156;2022-10-18T09:16:49;5.53;;;4.53;;
2684;SDS011;1352;48.446;9.156;2022-10-18T09:19:28;6.20;;;4.80;;
2684;SDS011;1352;48.446;9.156;2022-10-18T09:22:10;5.03;;;4.53;;
2684;SDS011;1352;48.446;9.156;2022-10-18T09:24:43;9.80;;;4.63;;
2684;SDS011;1352;48.446;9.156;2022-10-18T09:27:19;10.93;;;6.13;;
2684;SDS011;1352;48.446;9.156;2022-10-18T09:29:51;4.93;;;4.20;;
2684;SDS011;1352;48.446;9.156;2022-10-18T09:32:30;7.37;;;4.43;;
2684;SDS011;1352;48.446;9.156;2022-10-18T09:35:11;5.67;;;4.90;;
2684;SDS011;1352;48.446;9.156;2022-10-18T09:37:42;5.17;;;4.67;;
2684;SDS011;1352;48.446;9.156;2022-10-18T09:40:13;6.10;;;4.90;;
2684;SDS011;1352;48.446;9.156;2022-10-18T09:42:46;5.03;;;4.60;;
2684;SDS011;1352;48.446;9.156;2022-10-18T09:45:23;6.73;;;5.60;;
2684;SDS011;1352;48.446;9.156;2022-10-18T09:47:55;9.90;;;4.80;;
2684;SDS011;1352;48.446;9.156;2022-10-18T09:50:31;8.80;;;5.00;;
2684;SDS011;1352;48.446;9.156;2022-10-18T09:53:05;6.83;;;4.83;;
2684;SDS011;1352;48.446;9.156;2022-10-18T09:55:50;8.30;;;4.93;;
2684;SDS011;1352;48.446;9.156;2022-10-18T09:58:24;4.93;;;4.43;;
2684;SDS011;1352;48.446;9.156;2022-10-18T10:00:53;5.37;;;4.60;;
2684;SDS011;1352;48.446;9.156;2022-10-18T10:03:21;5.37;;;4.30;;
2684;SDS011;1352;48.446;9.156;2022-10-18T10:05:48;7.60;;;4.80;;
2684;SDS011;1352;48.446;9.156;2022-10-18T10:08:31;5.13;;;4.50;;
2684;SDS011;1352;48.446;9.156;2022-10-18T10:11:00;4.73;;;4.33;;
2684;SDS011;1352;48.446;9.156;2022-10-18T10:13:27;5.13;;;4.63;;
2684;SDS011;1352;48.446;9.156;2022-10-18T10:15:55;5.80;;;4.00;;
2684;SDS011;1352;48.446;9.156;2022-10-18T10:18:26;8.27;;;4.47;;
2684;SDS011;1352;48.446;9.156;2022-10-18T10:20:57;5.87;;;4.90;;
2684;SDS011;1352;48.446;9.156;2022-10-18T10:23:26;10.90;;;4.87;;
2684;SDS011;1352;48.446;9.156;2022-10-18T10:25:57;5.57;;;4.90;;
2684;SDS011;1352;48.446;9.156;2022-10-18T10:28:29;4.77;;;4.00;;
2684;SDS011;1352;48.446;9.156;2022-10-18T10:33:44;8.90;;;5.37;;
2684;SDS011;1352;48.446;9.156;2022-10-18T10:36:15;10.30;;;5.60;;
2684;SDS011;1352;48.446;9.156;2022-10-18T10:38:43;9.90;;;5.77;;
2684;SDS011;1352;48.446;9.156;2022-10-18T10:41:17;6.20;;;5.60;;
2684;SDS011;1352;48.446;9.156;2022-10-18T10:43:48;7.23;;;5.77;;
2684;SDS011;1352;48.446;9.156;2022-10-18T10:46:16;6.23;;;5.63;;
2684;SDS011;1352;48.446;9.156;2022-10-18T10:48:47;8.60;;;6.23;;
2684;SDS011;1352;48.446;9.156;2022-10-18T10:51:17;6.60;;;6.00;;
2684;SDS011;1352;48.446;9.156;2022-10-18T10:53:57;6.57;;;5.97;;
2684;SDS011;1352;48.446;9.156;2022-10-18T10:56:27;10.97;;;5.90;;
2684;SDS011;1352;48.446;9.156;2022-10-18T10:58:59;7.03;;;5.23;;
2684;SDS011;1352;48.446;9.156;2022-10-18T11:01:33;9.07;;;5.23;;
2684;SDS011;1352;48.446;9.156;2022-10-18T11:04:02;5.13;;;4.20;;
2684;SDS011;1352;48.446;9.156;2022-10-18T11:06:46;6.83;;;4.23;;
2684;SDS011;1352;48.446;9.156;2022-10-18T11:09:23;3.80;;;3.50;;
2684;SDS011;1352;48.446;9.156;2022-10-18T11:12:01;8.00;;;4.17;;
2684;SDS011;1352;48.446;9.156;2022-10-18T11:14:40;4.70;;;4.30;;
2684;SDS011;1352;48.446;9.156;2022-10-18T11:17:13;4.03;;;3.73;;
2684;SDS011;1352;48.446;9.156;2022-10-18T11:19:54;5.93;;;3.93;;
2684;SDS011;1352;48.446;9.156;2022-10-18T11:22:26;7.20;;;4.60;;
2684;SDS011;1352;48.446;9.156;2022-10-18T11:25:00;7.47;;;4.10;;
2684;SDS011;1352;48.446;9.156;2022-10-18T11:27:29;5.40;;;3.83;;
2684;SDS011;1352;48.446;9.156;2022-10-18T11:30:05;3.80;;;3.40;;
2684;SDS011;1352;48.446;9.156;2022-10-18T11:32:46;3.40;;;3.10;;
2684;SDS011;1352;48.446;9.156;2022-10-18T11:35:30;5.57;;;3.50;;
2684;SDS011;1352;48.446;9.156;2022-10-18T11:38:05;6.67;;;3.70;;
2684;SDS011;1352;48.446;9.156;2022-10-18T11:40:47;4.60;;;3.80;;
2684;SDS011;1352;48.446;9.156;2022-10-18T11:43:23;3.87;;;3.40;;
2684;SDS011;1352;48.446;9.156;2022-10-18T11:46:02;7.13;;;4.17;;
2684;SDS011;1352;48.446;9.156;2022-10-18T11:48:48;5.63;;;3.60;;
2684;SDS011;1352;48.446;9.156;2022-10-18T11:51:27;3.40;;;3.10;;
2684;SDS011;1352;48.446;9.156;2022-10-18T11:54:03;5.63;;;3.33;;
2684;SDS011;1352;48.446;9.156;2022-10-18T11:56:46;5.73;;;3.43;;
2684;SDS011;1352;48.446;9.156;2022-10-18T11:59:26;4.50;;;3.40;;
2684;SDS011;1352;48.446;9.156;2022-10-18T12:02:02;4.70;;;2.97;;
2684;SDS011;1352;48.446;9.156;2022-10-18T12:04:48;5.20;;;3.70;;
2684;SDS011;1352;48.446;9.156;2022-10-18T12:07:20;7.00;;;3.30;;
2684;SDS011;1352;48.446;9.156;2022-10-18T12:09:49;6.73;;;4.30;;
2684;SDS011;1352;48.446;9.156;2022-10-18T12:12:20;6.70;;;4.27;;
2684;SDS011;1352;48.446;9.156;2022-10-18T12:14:52;5.60;;;4.40;;
2684;SDS011;1352;48.446;9.156;2022-10-18T12:17:27;5.23;;;4.27;;
2684;SDS011;1352;48.446;9.156;2022-10-18T12:20:02;7.20;;;4.50;;
2684;SDS011;1352;48.446;9.156;2022-10-18T12:22:34;4.93;;;3.87;;
2684;SDS011;1352;48.446;9.156;2022-10-18T12:25:05;6.60;;;4.40;;
2684;SDS011;1352;48.446;9.156;2022-10-18T12:27:38;5.87;;;4.23;;
2684;SDS011;1352;48.446;9.156;2022-10-18T12:30:13;3.77;;;3.37;;
2684;SDS011;1352;48.446;9.156;2022-10-18T12:32:49;6.40;;;3.73;;
2684;SDS011;1352;48.446;9.156;2022-10-18T12:35:22;9.00;;;4.23;;
2684;SDS011;1352;48.446;9.156;2022-10-18T12:37:54;4.70;;;4.03;;
2684;SDS011;1352;48.446;9.156;2022-10-18T12:40:31;5.17;;;3.67;;
2684;SDS011;1352;48.446;9.156;2022-10-18T12:43:06;4.80;;;3.80;;
2684;SDS011;1352;48.446;9.156;2022-10-18T12:45:45;6.50;;;4.23;;
2684;SDS011;1352;48.446;9.156;2022-10-18T12:48:26;6.20;;;4.40;;
2684;SDS011;1352;48.446;9.156;2022-10-18T12:50:57;4.50;;;4.10;;
2684;SDS011;1352;48.446;9.156;2022-10-18T12:53:26;9.73;;;4.10;;
2684;SDS011;1352;48.446;9.156;2022-10-18T12:55:54;7.53;;;4.10;;
2684;SDS011;1352;48.446;9.156;2022-10-18T12:58:41;6.27;;;3.50;;
2684;SDS011;1352;48.446;9.156;2022-10-18T13:01:08;4.30;;;3.87;;
2684;SDS011;1352;48.446;9.156;2022-10-18T13:03:39;3.63;;;3.03;;
2684;SDS011;1352;48.446;9.156;2022-10-18T13:06:15;2.83;;;2.63;;
2684;SDS011;1352;48.446;9.156;2022-10-18T13:08:43;6.37;;;3.20;;
2684;SDS011;1352;48.446;9.156;2022-10-18T13:11:13;3.80;;;3.00;;
2684;SDS011;1352;48.446;9.156;2022-10-18T13:17:05;3.60;;;3.23;;
2684;SDS011;1352;48.446;9.156;2022-10-18T13:19:46;3.30;;;3.00;;
2684;SDS011;1352;48.446;9.156;2022-10-18T13:22:27;3.13;;;2.93;;
2684;SDS011;1352;48.446;9.156;2022-10-18T13:25:10;2.60;;;2.40;;
2684;SDS011;1352;48.446;9.156;2022-10-18T13:27:45;4.20;;;2.90;;
2684;SDS011;1352;48.446;9.156;2022-10-18T13:30:26;4.63;;;2.87;;
2684;SDS011;1352;48.446;9.156;2022-10-18T13:33:02;6.00;;;2.67;;
2684;SDS011;1352;48.446;9.156;2022-10-18T13:35:52;7.13;;;3.33;;
2684;SDS011;1352;48.446;9.156;2022-10-18T13:38:26;2.53;;;2.33;;
2684;SDS011;1352;48.446;9.156;2022-10-18T13:40:59;3.20;;;2.87;;
2684;SDS011;1352;48.446;9.156;2022-10-18T13:46:20;4.63;;;2.53;;
2684;SDS011;1352;48.446;9.156;2022-10-18T13:48:49;4.40;;;2.63;;
2684;SDS011;1352;48.446;9.156;2022-10-18T13:51:31;5.03;;;2.70;;
2684;SDS011;1352;48.446;9.156;2022-10-18T13:54:20;3.77;;;2.83;;
2684;SDS011;1352;48.446;9.156;2022-10-18T13:57:06;2.87;;;2.43;;
2684;SDS011;1352;48.446;9.156;2022-10-18T13:59:50;2.60;;;2.40;;
2684;SDS011;1352;48.446;9.156;2022-10-18T14:02:39;12.63;;;2.57;;
2684;SDS011;1352;48.446;9.156;2022-10-18T14:08:11;6.00;;;2.60;;
2684;SDS011;1352;48.446;9.156;2022-10-18T14:10:42;2.50;;;2.30;;
2684;SDS011;1352;48.446;9.156;2022-10-18T14:13:21;4.50;;;2.83;;
2684;SDS011;1352;48.446;9.156;2022-10-18T14:15:52;3.10;;;2.80;;
2684;SDS011;1352;48.446;9.156;2022-10-18T14:18:25;3.50;;;2.60;;
2684;SDS011;1352;48.446;9.156;2022-10-18T14:20:57;5.53;;;3.23;;
2684;SDS011;1352;48.446;9.156;2022-10-18T14:23:32;2.80;;;2.60;;
2684;SDS011;1352;48.446;9.156;2022-10-18T14:26:05;5.30;;;2.93;;
2684;SDS011;1352;48.446;9.156;2022-10-18T14:28:32;3.10;;;2.80;;
2684;SDS011;1352;48.446;9.156;2022-10-18T14:31:00;2.90;;;2.60;;
2684;SDS011;1352;48.446;9.156;2022-10-18T14:33:31;3.60;;;3.17;;
2684;SDS011;1352;48.446;9.156;2022-10-18T14:36:01;3.50;;;3.10;;
2684;SDS011;1352;48.446;9.156;2022-10-18T14:38:34;3.40;;;3.10;;
2684;SDS011;1352;48.446;9.156;2022-10-18T14:41:12;5.20;;;3.20;;
2684;SDS011;1352;48.446;9.156;2022-10-18T14:43:41;5.83;;;3.30;;
2684;SDS011;1352;48.446;9.156;2022-10-18T14:46:13;3.17;;;2.87;;
2684;SDS011;1352;48.446;9.156;2022-10-18T14:48:50;4.23;;;3.00;;
2684;SDS011;1352;48.446;9.156;2022-10-18T14:51:18;4.70;;;3.50;;
2684;SDS011;1352;48.446;9.156;2022-10-18T14:53:47;6.37;;;4.13;;
2684;SDS011;1352;48.446;9.156;2022-10-18T14:56:19;5.67;;;3.60;;
2684;SDS011;1352;48.446;9.156;2022-10-18T14:58:48;4.87;;;3.47;;
2684;SDS011;1352;48.446;9.156;2022-10-18T15:01:17;4.47;;;3.00;;
2684;SDS011;1352;48.446;9.156;2022-10-18T15:03:46;7.90;;;3.07;;
2684;SDS011;1352;48.446;9.156;2022-10-18T15:06:14;4.77;;;3.13;;
2684;SDS011;1352;48.446;9.156;2022-10-18T15:08:43;6.47;;;3.47;;
2684;SDS011;1352;48.446;9.156;2022-10-18T15:11:13;5.40;;;3.27;;
2684;SDS011;1352;48.446;9.156;2022-10-18T15:13:44;3.17;;;2.90;;
2684;SDS011;1352;48.446;9.156;2022-10-18T15:16:15;3.80;;;3.40;;
2684;SDS011;1352;48.446;9.156;2022-10-18T15:18:57;4.70;;;3.43;;
2684;SDS011;1352;48.446;9.156;2022-10-18T15:21:25;3.23;;;2.80;;
2684;SDS011;1352;48.446;9.156;2022-10-18T15:23:53;4.03;;;3.50;;
2684;SDS011;1352;48.446;9.156;2022-10-18T15:26:23;4.57;;;3.03;;
2684;SDS011;1352;48.446;9.156;2022-10-18T15:28:53;4.10;;;3.63;;
2684;SDS011;1352;48.446;9.156;2022-10-18T15:31:24;6.90;;;4.23;;
2684;SDS011;1352;48.446;9.156;2022-10-18T15:33:53;4.37;;;3.97;;
2684;SDS011;1352;48.446;9.156;2022-10-18T15:36:34;4.40;;;3.60;;
2684;SDS011;1352;48.446;9.156;2022-10-18T15:39:03;5.27;;;3.73;;
2684;SDS011;1352;48.446;9.156;2022-10-18T15:41:37;9.23;;;3.40;;
2684;SDS011;1352;48.446;9.156;2022-10-18T15:44:23;4.10;;;2.90;;
2684;SDS011;1352;48.446;9.156;2022-10-18T15:46:53;3.93;;;3.37;;
2684;SDS011;1352;48.446;9.156;2022-10-18T15:52:29;7.00;;;4.00;;
2684;SDS011;1352;48.446;9.156;2022-10-18T15:54:58;4.40;;;4.00;;
2684;SDS011;1352;48.446;9.156;2022-10-18T15:57:29;7.60;;;4.80;;
2684;SDS011;1352;48.446;9.156;2022-10-18T15:59:58;5.30;;;4.07;;
2684;SDS011;1352;48.446;9.156;2022-10-18T16:02:27;8.10;;;4.20;;